Latest Weather Observations for Mount Buller

IDV60801

Issued at 10:52 am EST Monday 1 June 2020 (issued every 10 minutes, with the page automatically refreshed every 10 minutes)

About weather observations | Map of weather stations | Latest weather observations for VIC | Other Formats
Station Details ID: 083024 Name: MOUNT BULLER Lat: -37.15 Lon: 146.44 Height: 1707.0 m
Data from the previous 72 hours. | See also: Recent months at Mount Buller
Date/Time
EST
Temp
°C
App
Temp
°C
Dew
Point
°C
Rel
Hum
%
Delta-T
°C
Wind Press
QNH
hPa
Press
MSL
hPa
Rain since
9am
mm
Dir  Spd
km/h
Gust
km/h
Spd
kts
Gust
kts
01/10:30am -1.6 -8.4 -1.7 99 0.0 N 24 30 13 16 - - 2.2
01/10:00am -1.6 -8.4 -1.7 99 0.0 N 24 35 13 19 - - 1.6
01/09:30am -1.9 -9.1 -2.0 99 -0.1 N 26 35 14 19 - - 0.8
01/09:00am -1.7 -9.6 -1.8 99 0.0 N 30 39 16 21 - - 7.6
01/08:30am -1.3 -9.7 -1.4 99 0.0 NNW 33 46 18 25 - - 6.6
01/08:00am -0.8 -9.0 -0.9 99 0.0 N 32 43 17 23 - - 5.8
01/07:30am -0.6 -9.3 -0.7 99 0.0 N 35 50 19 27 - - 5.4
01/07:00am -0.3 -9.4 -0.4 99 0.0 N 37 50 20 27 - - 5.0
01/06:30am -0.2 -10.4 -0.3 99 0.0 N 43 63 23 34 - - 5.0
01/06:02am -0.2 -10.6 -0.3 99 0.0 N 44 63 24 34 - - 5.0
01/06:00am -0.2 -10.4 -0.3 99 0.0 N 43 59 23 32 - - 5.0
01/05:37am -0.2 -11.3 -0.3 99 0.0 NNW 48 67 26 36 - - 5.0
01/05:30am -0.1 -12.4 -0.2 99 0.0 NNW 54 67 29 36 - - 5.0
01/05:06am -0.1 -10.9 -0.2 99 0.0 NNW 46 69 25 37 - - 5.0
01/05:00am -0.1 -10.9 -0.2 99 0.0 N 46 63 25 34 - - 5.0
01/04:30am -0.1 -11.6 -0.2 99 0.0 NNW 50 78 27 42 - - 5.0
01/04:00am 0.0 -12.6 -0.1 99 0.0 NNW 56 76 30 41 - - 5.0
01/03:52am 0.1 -12.7 0.0 99 0.0 NNW 57 76 31 41 - - 5.0
01/03:30am 0.2 -12.6 0.1 99 0.0 NNW 57 74 31 40 - - 5.0
01/03:00am 0.2 -12.4 0.1 99 0.0 NNW 56 70 30 38 - - 5.0
01/02:30am 0.1 -13.5 0.0 99 0.0 NNW 61 82 33 44 - - 5.0
01/02:02am 0.0 -12.8 -0.1 99 0.0 NNW 57 82 31 44 - - 4.8
01/02:00am 0.0 -12.8 -0.1 99 0.0 NNW 57 74 31 40 - - 4.6
01/01:39am 0.6 -12.1 0.5 99 0.0 NNW 57 83 31 45 - - 4.4
01/01:30am 0.5 -12.1 0.4 99 0.0 NNW 56 72 30 39 - - 4.4
01/01:00am 0.6 -10.8 0.5 99 0.0 N 50 74 27 40 - - 4.4
01/12:30am 0.6 -11.9 0.5 99 0.0 N 56 76 30 41 - - 4.4
01/12:00am 0.3 -11.2 0.2 99 0.0 NNW 50 70 27 38 - - 3.8
 
Date/Time
EST
Temp
°C
App
Temp
°C
Dew
Point
°C
Rel
Hum
%
Delta-T
°C
Wind Press
QNH
hPa
Press
MSL
hPa
Rain since
9am
mm
Dir  Spd
km/h
Gust
km/h
Spd
kts
Gust
kts
31/11:30pm 0.5 -9.8 0.4 99 0.0 N 44 63 24 34 - - 2.6
31/11:00pm 0.7 -10.7 0.6 99 0.0 N 50 70 27 38 - - 1.8
31/10:30pm 0.5 -11.7 0.4 99 0.0 NNW 54 74 29 40 - - 1.2
31/10:00pm 0.6 -9.5 0.5 99 0.0 N 43 61 23 33 - - 0.6
31/09:40pm 0.7 -8.6 0.6 99 0.0 N 39 57 21 31 - - 0.4
31/09:30pm 0.9 -8.0 0.8 99 0.0 N 37 54 20 29 - - 0.4
31/09:00pm 1.0 -7.9 0.9 99 0.0 NNW 37 56 20 30 - - 0.4
31/08:30pm 1.0 -9.0 0.9 99 0.0 NNW 43 61 23 33 - - 0.4
31/08:00pm 0.9 -9.3 0.8 99 0.0 N 44 67 24 36 - - 0.4
31/07:40pm 1.0 -9.6 0.9 99 0.0 NNW 46 65 25 35 - - 0.4
31/07:30pm 1.1 -8.9 1.0 99 0.0 NNW 43 59 23 32 - - 0.4
31/07:05pm 1.2 -8.8 1.1 99 0.0 NNW 43 61 23 33 - - 0.4
31/07:00pm 1.2 -8.8 1.1 99 0.0 NNW 43 57 23 31 - - 0.4
31/06:30pm 1.1 -9.5 1.0 99 0.0 NNW 46 67 25 36 - - 0.4
31/06:10pm 1.3 -9.6 1.2 99 0.0 NNW 48 67 26 36 - - 0.4
31/06:00pm 1.2 -10.1 1.1 99 0.0 NNW 50 63 27 34 - - 0.4
31/05:30pm 0.7 -9.6 0.6 99 0.0 N 44 72 24 39 - - 0.4
31/05:00pm 1.1 -9.5 1.0 99 0.0 NNW 46 65 25 35 - - 0.2
31/04:56pm 1.1 -8.5 1.0 99 0.0 NNW 41 61 22 33 - - 0.2
31/04:30pm 1.0 -9.6 0.9 99 0.0 NNW 46 59 25 32 - - 0.2
31/04:00pm 1.3 -8.3 1.2 99 0.0 NNW 41 63 22 34 - - 0.2
31/03:51pm 1.2 -9.0 1.1 99 0.0 NNW 44 63 24 34 - - 0.2
31/03:30pm 1.1 -8.1 1.0 99 0.0 NNW 39 56 21 30 - - 0.2
31/03:00pm 1.2 -9.0 1.1 99 0.0 NNW 44 61 24 33 - - 0.0
31/02:30pm 1.5 -9.4 1.4 99 0.0 N 48 69 26 37 - - 0.0
31/02:00pm 1.7 -8.2 1.6 99 0.0 N 43 63 23 34 - - 0.0
31/01:30pm 1.9 -8.5 1.8 99 0.0 NNW 46 65 25 35 - - 0.0
31/01:09pm 2.0 -8.0 1.9 99 0.0 NNW 44 63 24 34 - - 0.0
31/01:00pm 2.1 -8.3 2.0 99 0.0 NNW 46 61 25 33 - - 0.0
31/12:30pm 1.8 -8.3 1.7 99 0.0 NNW 44 67 24 36 - - 0.0
31/12:00pm 2.0 -8.4 1.9 99 0.0 NNW 46 72 25 39 - - 0.0
31/11:30am 3.0 -6.7 2.6 97 0.2 NNW 43 67 23 36 - - 0.0
31/11:00am 1.6 -7.2 1.5 99 0.0 N 37 59 20 32 - - 0.0
31/10:30am 1.8 -6.2 1.7 99 0.0 N 33 52 18 28 - - 0.0
31/10:00am 2.0 -7.2 1.0 93 0.4 NNW 39 54 21 29 - - 0.0
31/09:30am 2.2 -7.8 0.9 91 0.6 N 43 65 23 35 - - 0.0
31/09:01am 2.0 -9.0 0.4 89 0.7 NNW 48 67 26 36 - - 0.0
31/09:00am 2.0 -9.4 0.4 89 0.7 NNW 50 67 27 36 - - 0.0
31/08:41am 1.7 -8.3 0.7 93 0.4 NNW 43 65 23 35 - - 0.0
31/08:30am 1.4 -9.2 0.8 96 0.3 N 46 61 25 33 - - 0.0
31/08:01am 1.1 -10.2 1.0 99 0.0 NNW 50 72 27 39 - - 0.0
31/08:00am 1.1 -10.2 1.0 99 0.0 NNW 50 67 27 36 - - 0.0
31/07:30am 1.4 -9.6 1.0 97 0.2 NNW 48 67 26 36 - - 0.0
31/07:08am 1.6 -8.3 1.5 99 0.0 N 43 63 23 34 - - 0.0
31/07:00am 1.5 -8.1 1.4 99 0.0 N 41 57 22 31 - - 0.0
31/06:30am 1.7 -9.5 1.6 99 0.0 NNW 50 69 27 37 - - 0.0
31/06:00am 1.4 -9.1 1.3 99 0.0 NNW 46 74 25 40 - - 0.0
31/05:31am 1.2 -10.5 1.1 99 0.0 NNW 52 70 28 38 - - 0.0
31/05:30am 1.2 -10.9 1.1 99 0.0 NNW 54 70 29 38 - - 0.0
31/05:00am 1.1 -10.6 1.0 99 0.0 NNW 52 72 28 39 - - 0.0
31/04:30am 1.4 -11.2 1.3 99 0.0 NNW 57 82 31 44 - - 0.0
31/04:26am 1.5 -10.9 1.4 99 0.0 NNW 56 82 30 44 - - 0.0
31/04:00am 1.6 -13.3 1.3 98 0.1 NNW 69 91 37 49 - - 0.0
31/03:30am 2.5 -10.2 1.0 90 0.6 NNW 57 82 31 44 - - 0.0
31/03:00am 2.4 -10.8 2.3 99 0.0 N 61 93 33 50 - - 0.0
31/02:30am 2.4 -11.6 2.3 99 0.0 NNW 65 85 35 46 - - 0.0
31/02:00am 2.4 -9.9 2.3 99 0.0 N 56 80 30 43 - - 0.0
31/01:30am 2.4 -9.5 2.3 99 0.0 N 54 82 29 44 - - 0.0
31/01:00am 2.9 -10.6 2.8 99 0.0 NNW 63 89 34 48 - - 0.0
31/12:30am 3.1 -10.7 3.0 99 0.0 N 65 96 35 52 - - 0.0
31/12:00am 3.0 -10.9 2.9 99 0.0 N 65 93 35 50 - - 0.0
 
Date/Time
EST
Temp
°C
App
Temp
°C
Dew
Point
°C
Rel
Hum
%
Delta-T
°C
Wind Press
QNH
hPa
Press
MSL
hPa
Rain since
9am
mm
Dir  Spd
km/h
Gust
km/h
Spd
kts
Gust
kts
30/11:30pm 3.1 -11.1 3.0 99 0.0 N 67 93 36 50 - - 0.0
30/11:00pm 2.9 -11.7 2.8 99 0.0 N 69 98 37 53 - - 0.0
30/10:30pm 3.0 -12.2 2.9 99 0.0 N 72 96 39 52 - - 0.0
30/10:00pm 2.9 -11.9 2.8 99 0.0 N 70 96 38 52 - - 0.0
30/09:30pm 2.9 -11.7 2.8 99 0.0 N 69 91 37 49 - - 0.0
30/09:00pm 2.8 -11.5 2.7 99 0.0 N 67 98 36 53 - - 0.0
30/08:30pm 2.5 -11.8 2.4 99 0.0 N 67 95 36 51 - - 0.0
30/08:00pm 2.5 -11.1 2.4 99 0.0 N 63 85 34 46 - - 0.0
30/07:30pm 2.3 -10.5 2.2 99 0.0 N 59 89 32 48 - - 0.0
30/07:00pm 2.4 -9.5 2.3 99 0.0 NNE 54 80 29 43 - - 0.0
30/06:30pm 2.2 -10.1 2.1 99 0.0 NNE 56 80 30 43 - - 0.0
30/06:00pm 2.3 -9.6 2.2 99 0.0 NNE 54 72 29 39 - - 0.0
30/05:30pm 1.9 -9.3 1.8 99 0.0 N 50 70 27 38 - - 0.0
30/05:00pm 2.0 -8.4 1.9 99 0.0 NNE 46 72 25 39 - - 0.0
30/04:33pm 2.0 -8.4 1.9 99 0.0 N 46 67 25 36 - - 0.0
30/04:30pm 2.2 -8.2 2.1 99 0.0 N 46 59 25 32 - - 0.0
30/04:00pm 2.0 -8.4 1.9 99 0.0 N 46 69 25 37 - - 0.0
30/03:30pm 2.2 -8.7 1.2 93 0.4 N 48 70 26 38 - - 0.0
30/03:00pm 2.1 -8.4 1.5 96 0.3 N 46 67 25 36 - - 0.0
30/02:30pm 2.3 -8.2 1.4 94 0.4 N 46 65 25 35 - - 0.0
30/02:00pm 2.9 -7.7 1.1 88 0.8 N 46 69 25 37 - - 0.0
30/01:49pm 2.9 -7.3 -0.5 78 1.4 N 43 78 23 42 - - 0.0
30/01:44pm 3.6 -5.4 0.1 78 1.5 N 37 56 20 30 - - 0.0
30/01:30pm 2.2 -6.7 0.6 89 0.7 NNE 37 54 20 29 - - 0.0
30/01:06pm 3.4 -6.7 0.5 81 1.2 NNE 43 61 23 33 - - 0.0
30/01:00pm 2.8 -7.2 0.9 87 0.8 NNE 43 56 23 30 - - 0.0
30/12:37pm 3.1 -6.6 0.7 84 1.0 NNE 41 59 22 32 - - 0.0
30/12:30pm 2.6 -6.7 0.3 85 1.0 NNE 39 52 21 28 - - 0.0
30/12:23pm 3.4 -6.7 0.1 79 1.4 N 43 61 23 33 - - 0.0
30/12:00pm 2.0 -8.2 -0.2 85 0.9 N 43 57 23 31 - - 0.0
30/11:35am 2.8 -7.4 -0.1 81 1.2 N 43 61 23 33 - - 0.0
30/11:30am 2.0 -8.2 -0.1 86 0.9 N 43 54 23 29 - - 0.0
30/11:00am 2.1 -7.7 -0.5 83 1.1 N 41 52 22 28 - - 0.0
30/10:30am 0.8 -7.7 0.7 99 0.0 NNE 35 43 19 23 - - 0.0
30/10:00am 0.1 -8.9 0.0 99 0.0 NNE 37 48 20 26 - - 0.0
30/09:30am -0.3 -9.0 -0.4 99 0.0 N 35 44 19 24 - - 0.0
30/09:00am -0.4 -9.6 -1.0 96 0.2 NNE 37 48 20 26 - - 0.0
30/08:30am 0.0 -8.3 -1.4 90 0.5 N 32 41 17 22 - - 0.0
30/08:00am 1.1 -7.5 -2.5 77 1.4 N 33 48 18 26 - - 0.0
30/07:30am 0.3 -8.3 -3.8 74 1.5 N 32 48 17 26 - - 0.0
30/07:00am 0.0 -8.5 -3.4 78 1.3 N 32 48 17 26 - - 0.0
30/06:30am 0.7 -7.8 -3.4 74 1.6 N 32 48 17 26 - - 0.0
30/06:00am -0.8 -9.0 -0.9 99 0.0 NNE 32 39 17 21 - - 0.0
30/05:30am -0.5 -8.8 -1.8 91 0.5 N 32 39 17 21 - - 0.0
30/05:00am -0.7 -9.0 -1.8 92 0.4 N 32 43 17 23 - - 0.0
30/04:45am 0.9 -6.8 -3.0 75 1.5 N 28 46 15 25 - - 0.0
30/04:30am 0.9 -6.6 -4.1 69 1.9 N 26 39 14 21 - - 0.0
30/04:00am 1.5 -6.2 -6.1 57 2.8 N 26 33 14 18 - - 0.0
30/03:30am 2.6 -6.0 -7.6 47 3.7 N 30 39 16 21 - - 0.0
30/03:00am 2.4 -5.8 -7.5 48 3.5 N 28 39 15 21 - - 0.0
30/02:30am 0.2 -5.7 -2.5 82 1.0 NNW 19 22 10 12 - - 0.0
30/02:00am 1.5 -4.9 -5.4 60 2.6 NNW 20 24 11 13 - - 0.0
30/01:30am 2.5 -4.6 -7.9 46 3.7 NNW 22 26 12 14 - - 0.0
30/01:00am 2.3 -4.6 -6.5 52 3.2 NNW 22 26 12 14 - - 0.0
30/12:30am 2.4 -4.2 -7.2 49 3.5 NNW 20 26 11 14 - - 0.0
30/12:00am 2.0 -3.6 -3.1 69 1.9 NW 17 20 9 11 - - 0.0
 
Date/Time
EST
Temp
°C
App
Temp
°C
Dew
Point
°C
Rel
Hum
%
Delta-T
°C
Wind Press
QNH
hPa
Press
MSL
hPa
Rain since
9am
mm
Dir  Spd
km/h
Gust
km/h
Spd
kts
Gust
kts
29/11:30pm 0.4 -4.1 -0.3 95 0.3 NW 13 15 7 8 - - 0.0
29/11:00pm 0.3 -5.0 -0.7 93 0.4 NW 17 19 9 10 - - 0.0
29/10:30pm 0.6 -4.7 -3.3 75 1.5 NW 15 20 8 11 - - 0.0
29/10:00pm 1.6 -3.8 -4.5 64 2.3 NW 15 22 8 12 - - 0.0
29/09:30pm 2.1 -3.4 -5.5 57 2.9 NW 15 20 8 11 - - 0.0
29/09:00pm 3.0 -3.2 -8.6 42 4.1 NW 17 22 9 12 - - 0.0
29/08:30pm 4.0 -2.5 -12.8 28 5.4 NW 17 22 9 12 - - 0.0
29/08:00pm 5.5 -1.1 -15.6 20 6.5 NW 17 24 9 13 - - 0.0
29/07:30pm 5.5 -1.2 -16.9 18 6.7 WNW 17 26 9 14 - - 0.0
29/07:00pm 2.1 -2.6 -1.9 75 1.6 NW 13 17 7 9 - - 0.0
29/06:30pm 4.7 -1.8 -8.0 39 4.4 NW 19 24 10 13 - - 0.0
29/06:00pm 2.5 -2.8 -4.0 62 2.4 NW 15 20 8 11 - - 0.0
29/05:30pm 1.4 -2.5 1.3 99 0.0 NNW 11 13 6 7 - - 0.0
29/05:00pm 0.6 -3.8 0.5 99 0.0 NNW 13 15 7 8 - - 0.0
29/04:30pm 1.1 -3.6 1.0 99 0.0 NNW 15 22 8 12 - - 0.0
29/04:00pm 1.8 -3.5 1.7 99 0.0 NNW 19 24 10 13 - - 0.0
29/03:30pm 1.7 -2.9 1.4 98 0.1 NNW 15 22 8 12 - - 0.0
29/03:00pm 2.5 -0.8 2.4 99 0.0 NNW 9 17 5 9 - - 0.0
29/02:30pm 2.4 -1.7 2.1 98 0.1 NNW 13 20 7 11 - - 0.0
29/02:00pm 3.3 -0.4 2.4 94 0.4 NNW 11 22 6 12 - - 0.0
29/01:30pm 3.0 -1.6 1.4 89 0.7 NW 15 28 8 15 - - 0.0
29/01:00pm 2.8 -0.9 2.4 97 0.2 NNW 11 19 6 10 - - 0.0
29/12:30pm 2.9 -0.4 2.6 98 0.1 NNW 9 19 5 10 - - 0.0
29/12:00pm 2.8 -0.9 2.2 96 0.3 NNW 11 20 6 11 - - 0.0
29/11:30am 4.7 1.8 2.4 85 1.0 N 7 11 4 6 - - 0.0
29/11:00am 4.6 1.6 2.0 83 1.2 N 7 11 4 6 - - 0.0

Other formats

Comma delimited format used in spreadsheet applications
http://www.bom.gov.au/fwo/IDV60801/IDV60801.94894.axf

JavaScript Object Notation format (JSON) in row-major order
http://www.bom.gov.au/fwo/IDV60801/IDV60801.94894.json

Data quality

Most of these data are generated automatically and are frequently updated. Quality checks on data are not normally performed. It is possible for incorrect values to appear. Refer to information at About Latest Weather Observations and please check the disclaimer before using these data.